Harbert, Michigan
Current Conditions -  °F | °C
As of 8:15 AM on Thursday 18 Dec 2014 (Local Time) from KMGC Reporting Station
Overcast Overcast  
Wind Chill: 27°   Ceiling: 2100
Heat Index: 27°   Visibility: 10mi
Dew Point: 19°   Wind: 3mph
Humidity: 74%   Direction: 200°SSW
Pressure: 30.28"   Gusts: NA
Location:  41.87°N, 86.63°W
Report Text: KMGC 181315Z AUTO 20003KT 10SM OVC021 M03/M07 A3028 RMK AO2
Loading
Personal Weather Stations






























Interactive Weather Map New forecast layout! Learn more

10-Day Weather Forecast

Advertisements
Track Severe Weather on mobile